Hovedside
METAR-TAF:

METAR-TAF

Lufthavner :

Kramfors lufthavn

Kramfors, Sverige

breddegrad: 63-03N, lengdegrad: 017-46E, høyde over havet: 10 m

Gjeldene værobservasjon

Denne rapporten ble laget for 34 minutter siden, klokken 01:50 UTC
Flau vind
Temperatur -2°C
Luftfuktighet 86%
Trykk 1013 hPa
Sikt 10 km eller mer

METAR: ESNK 210150Z AUTO 00000KT 9999 BKN100/// BKN200/// M02/M04 Q1013

Tid: 03:24 (02:24 UTC)

Varsel

Denne rapporten ble laget for 8 timer og 54 minutter siden, klokken 17:30 UTC
Varsel gyldig fra 20. klokken 18 UTC til 20. klokken 20 UTC
Vind 10 kt fra Vest-nordvest
Sikt 10 km eller mer
ingen skyer under 1500 m og ingen bygeskyer

TAF: ESNK 201730Z 2018/2020 29010KT CAVOK

Værobservasjoner og værvarsel for over 4000 flyplasser (METAR- og TAF-rapporter).

Tilgjengelige stasjoner er representert av de røde og gule prikkene på kartet.

Hold musepekeren over prikken for å se navnet på stasjonen.

Klikk så for å se værobservasjoner og -varsler.

For å forandre kartet kan du klikke på den grønne knappen med svart kryss for å zoome inn, på den grønne knappen med strek for å zoome ut, eller på de grønne pilene for å se tilstøtende kart.


METAR-TAF: